M I D A S
Marine Information and Data Acquisition System
Tripno 1638 of the Zeeleeuw from 2009-02-03 07:50:40 to 2009-02-03 15:48:55
Back to CruiseResearch ActivitiesStationsMapUnderway DataData graphs

EquipmentUnitsComment
TimeDGPSUTC
LatitudeDGPSDM.mWGS84
LongitudeDGPSDM.mWGS84
HeadingGyrodeg 
SOGDGPSknotsSpeed over ground
COGDGPSdegCourse over ground
DepthEcho soundermeters200 kHz
Missing or incorrect values are displayed as -999
Navigation data collected by the RV Zeeleeuw from 2009-02-03 07:49:35 to 2009-02-03 16:00:02
Time Latitude Longitude Heading SOG COG Depth
2009-02-03 07:50:41 51°13.675 2°55.913 113 2.8 295 -999
2009-02-03 07:51:41 51°13.696 2°55.829 106 3.5 288 -999
2009-02-03 07:52:41 51°13.704 2°55.76 84.5 0.4 354 -999
2009-02-03 07:53:41 51°13.704 2°55.764 31.9 1.8 210 -999
2009-02-03 07:54:41 51°13.729 2°55.748 336.9 4.8 333 13.2
2009-02-03 07:55:41 51°13.824 2°55.649 325.6 7.7 327 10.9
2009-02-03 07:56:41 51°13.944 2°55.547 334.9 8.4 335 10.9
2009-02-03 07:57:41 51°14.071 2°55.452 336.1 8.5 336 11
2009-02-03 07:58:41 51°14.198 2°55.338 328.1 9 325 11
2009-02-03 07:59:41 51°14.312 2°55.168 314 9.8 313 11.1
2009-02-03 08:00:41 51°14.423 2°54.964 315.9 10.6 317 11.4
2009-02-03 08:01:40 51°14.572 2°54.796 331.1 11.7 332 10.8
2009-02-03 08:02:39 51°14.744 2°54.638 330.9 12.3 331 10.6
2009-02-03 08:03:39 51°14.925 2°54.48 332 12.5 332 11.5
2009-02-03 08:04:38 51°15.105 2°54.326 331.7 12.3 331 11.9
2009-02-03 08:05:37 51°15.28 2°54.175 332.9 12.2 333 12.6
2009-02-03 08:06:37 51°15.459 2°54.023 334.4 12.2 333 10.9
2009-02-03 08:07:37 51°15.642 2°53.878 334.6 12.3 333 11.6
2009-02-03 08:08:37 51°15.822 2°53.718 330.5 12.4 330 12.1
2009-02-03 08:09:37 51°16.003 2°53.559 331.3 12.5 332 12.3
2009-02-03 08:10:37 51°16.188 2°53.417 334.3 12.2 335 12.4
2009-02-03 08:11:37 51°16.372 2°53.276 333.9 12.3 333 12.5
2009-02-03 08:12:37 51°16.556 2°53.129 333.1 12.5 333 12.4
2009-02-03 08:13:37 51°16.743 2°52.982 332.9 12.5 333 11.9
2009-02-03 08:14:37 51°16.927 2°52.834 333.1 12.5 334 9.9
2009-02-03 08:15:37 51°17.113 2°52.684 332.9 12.5 333 10.4
2009-02-03 08:16:37 51°17.298 2°52.542 338.4 12.4 337 10.8
2009-02-03 08:17:37 51°17.501 2°52.473 354.1 12.6 354 11.1
2009-02-03 08:18:37 51°17.709 2°52.446 358.6 12.5 357 11
2009-02-03 08:19:37 51°17.917 2°52.43 358.9 12.5 357 11.3
2009-02-03 08:20:37 51°18.124 2°52.404 356.6 12.4 354 11.5
2009-02-03 08:21:37 51°18.332 2°52.382 358.2 12.6 356 11.9
2009-02-03 08:22:37 51°18.541 2°52.377 2 12.7 -999 12.3
2009-02-03 08:23:37 51°18.751 2°52.403 9.3 12.5 8 12.7
2009-02-03 08:24:37 51°18.956 2°52.452 11.2 12.4 9 13.6
2009-02-03 08:25:37 51°19.161 2°52.5 10.4 12.4 7 14.4
2009-02-03 08:26:37 51°19.362 2°52.582 18.8 12.5 17 15.2
2009-02-03 08:27:37 51°19.56 2°52.689 20.2 12.5 18 15.8
2009-02-03 08:28:37 51°19.76 2°52.788 18.4 12.7 16 16.3
2009-02-03 08:29:37 51°19.963 2°52.886 18.8 12.6 17 16.5
2009-02-03 08:30:37 51°20.166 2°52.981 17.8 12.8 15 17
2009-02-03 08:31:37 51°20.374 2°53.069 17.5 13 14 17
2009-02-03 08:32:37 51°20.582 2°53.166 19.8 13.1 18 17
2009-02-03 08:33:37 51°20.792 2°53.262 17.7 13.1 17 17
2009-02-03 08:34:37 51°21.001 2°53.361 18.9 12.9 17 17
2009-02-03 08:35:37 51°21.204 2°53.462 19.7 12.6 18 16.6
2009-02-03 08:36:37 51°21.404 2°53.562 19.1 12.7 17 17
2009-02-03 08:37:37 51°21.603 2°53.667 25.9 12.5 25 17.2
2009-02-03 08:38:37 51°21.788 2°53.818 29.8 12.5 27 18.2
2009-02-03 08:39:37 51°21.988 2°53.891 3.6 12.5 1 19.9
2009-02-03 08:40:37 51°22.197 2°53.871 356.6 12.5 356 19.9
2009-02-03 08:41:37 51°22.406 2°53.854 -999 12.6 359 22.2
2009-02-03 08:42:37 51°22.618 2°53.849 359.1 12.8 359 23.5
2009-02-03 08:43:37 51°22.833 2°53.864 4.6 13.1 4 22.8
2009-02-03 08:44:38 51°23.051 2°53.894 5 13 7 22.4
2009-02-03 08:45:38 51°23.265 2°53.918 4.8 12.9 4 21.5
2009-02-03 08:46:37 51°23.475 2°53.941 4.6 12.7 7 20.8
2009-02-03 08:47:37 51°23.687 2°53.972 7 12.8 7 19.7
2009-02-03 08:48:37 51°23.899 2°54.011 6.5 12.8 6 21.9
2009-02-03 08:49:37 51°24.11 2°54.042 5.6 12.6 6 22.6
2009-02-03 08:50:37 51°24.321 2°54.076 9 12.8 7 21
2009-02-03 08:51:37 51°24.532 2°54.114 8 12.8 7 17.6
2009-02-03 08:52:37 51°24.743 2°54.141 6 12.7 4 18.1
2009-02-03 08:53:38 51°24.958 2°54.166 7 12.8 6 20.1
2009-02-03 08:54:38 51°25.171 2°54.204 8.3 12.9 7 22
2009-02-03 08:55:37 51°25.379 2°54.236 7.7 12.7 6 21.3
2009-02-03 08:56:37 51°25.588 2°54.276 7.8 12.7 6 21.9
2009-02-03 08:57:37 51°25.799 2°54.307 5.9 12.9 5 23.2
2009-02-03 08:58:37 51°26.012 2°54.344 8.2 12.7 6 23.6
2009-02-03 08:59:37 51°26.223 2°54.379 7.5 12.8 7 24.4
2009-02-03 09:00:37 51°26.434 2°54.411 6.4 12.8 4 24.7
2009-02-03 09:01:37 51°26.644 2°54.44 6.6 12.7 5 24.9
2009-02-03 09:02:37 51°26.856 2°54.471 6.7 12.9 5 24.6
2009-02-03 09:03:37 51°27.071 2°54.499 5.9 13 4 28
2009-02-03 09:04:37 51°27.285 2°54.533 5.7 12.9 4 29.3
2009-02-03 09:05:37 51°27.502 2°54.559 5.7 13 4 28.1
2009-02-03 09:06:37 51°27.719 2°54.582 3.8 13 3 26.7
2009-02-03 09:07:37 51°27.935 2°54.595 4.2 12.9 4 24.6
2009-02-03 09:08:37 51°28.145 2°54.641 10.4 12.6 9 21
2009-02-03 09:09:37 51°28.355 2°54.692 10.3 12.7 8 21.6
2009-02-03 09:10:37 51°28.568 2°54.74 10.7 13 8 19
2009-02-03 09:11:37 51°28.781 2°54.791 9.7 12.9 7 23.7
2009-02-03 09:12:37 51°28.99 2°54.838 12.1 12.6 10 26
2009-02-03 09:13:37 51°29.198 2°54.894 11 12.7 8 26.8
2009-02-03 09:14:37 51°29.407 2°54.951 11.9 12.7 10 27.4
2009-02-03 09:15:37 51°29.616 2°55.002 10.7 12.6 9 28.3
2009-02-03 09:16:38 51°29.828 2°55.054 9.7 12.6 6 28.4
2009-02-03 09:17:37 51°30.034 2°55.098 10.9 12.7 8 31.1
2009-02-03 09:18:37 51°30.245 2°55.153 10.3 12.8 7 34.9
2009-02-03 09:19:37 51°30.455 2°55.202 9.9 12.7 7 36.7
2009-02-03 09:20:37 51°30.663 2°55.269 15.6 12.9 15 38.1
2009-02-03 09:21:37 51°30.868 2°55.364 17.7 12.8 17 30.6
2009-02-03 09:22:37 51°31.072 2°55.465 18.7 12.8 17 19.7
2009-02-03 09:23:38 51°31.281 2°55.564 17.4 13 16 18.4
2009-02-03 09:24:37 51°31.485 2°55.647 16.3 11.6 16 15.5
2009-02-03 09:25:37 51°31.613 2°55.705 19.9 6.4 17 19.6
2009-02-03 09:26:37 51°31.711 2°55.743 14.9 5.9 12 20.3
2009-02-03 09:27:37 51°31.804 2°55.774 7.5 5.4 4 20.7
2009-02-03 09:28:37 51°31.884 2°55.75 338.1 4.3 342 16.7
2009-02-03 09:29:37 51°31.944 2°55.71 326.9 3.5 336 19.4
2009-02-03 09:30:37 51°31.995 2°55.687 351.7 3.1 355 19.2
2009-02-03 09:31:37 51°32.045 2°55.706 40.3 3.2 31 22
2009-02-03 09:32:37 51°32.071 2°55.763 95.1 2 68 18.9
2009-02-03 09:33:37 51°32.084 2°55.794 113.3 1.3 51 18.5
2009-02-03 09:34:38 51°32.096 2°55.817 118.8 1 45 20.2
2009-02-03 09:35:37 51°32.108 2°55.835 122.8 1 36 21.1
2009-02-03 09:36:37 51°32.122 2°55.849 125.8 1.1 31 21.3
2009-02-03 09:37:37 51°32.131 2°55.867 133.9 1.5 93 21.2
2009-02-03 09:38:37 51°32.104 2°55.878 199 2.4 210 21
2009-02-03 09:39:38 51°32.094 2°55.823 258.9 1.6 290 20.1
2009-02-03 09:40:37 51°32.11 2°55.797 289 1.1 329 20.6
2009-02-03 09:41:37 51°32.13 2°55.787 300.2 1.1 344 21.2
2009-02-03 09:42:37 51°32.149 2°55.781 299.3 1 349 21.5
2009-02-03 09:43:38 51°32.168 2°55.779 293.7 1.1 356 22.1
2009-02-03 09:44:38 51°32.187 2°55.78 291.6 1.1 -999 22.4
2009-02-03 09:45:37 51°32.204 2°55.781 291.9 1 5 20.7
2009-02-03 09:46:37 51°32.222 2°55.783 291.9 1 6 21.4
2009-02-03 09:47:37 51°32.242 2°55.78 293.7 1.6 333 21.7
2009-02-03 09:48:37 51°32.266 2°55.74 282.9 2.2 308 21.9
2009-02-03 09:49:37 51°32.285 2°55.7 276.1 1.8 317 22.1
2009-02-03 09:50:38 51°32.301 2°55.673 273 1.2 314 22.5
2009-02-03 09:51:37 51°32.317 2°55.655 273.6 1.2 334 22.7
2009-02-03 09:52:38 51°32.334 2°55.644 276.7 1.1 340 22.7
2009-02-03 09:53:37 51°32.352 2°55.637 280 1.2 351 22.6
2009-02-03 09:54:37 51°32.369 2°55.631 281.9 1.1 353 21.8
2009-02-03 09:55:38 51°32.386 2°55.622 278.4 1.5 324 20.2
2009-02-03 09:56:37 51°32.397 2°55.574 256.8 2.9 275 22.5
2009-02-03 09:57:38 51°32.386 2°55.469 246.3 3.7 255 21.3
2009-02-03 09:58:37 51°32.375 2°55.401 237 1.9 257 22.6
2009-02-03 09:59:38 51°32.372 2°55.362 235.4 1 260 22.6
2009-02-03 10:00:37 51°32.375 2°55.338 237.8 0.8 292 22
2009-02-03 10:01:38 51°32.385 2°55.321 247 0.8 325 21.9
2009-02-03 10:02:37 51°32.4 2°55.309 258.3 1.2 340 22.3
2009-02-03 10:03:37 51°32.417 2°55.302 272.9 1.1 348 22.5
2009-02-03 10:04:38 51°32.434 2°55.299 291.5 0.9 354 22.7
2009-02-03 10:05:37 51°32.452 2°55.3 304 1 356 22.9
2009-02-03 10:06:38 51°32.469 2°55.301 312.3 1 2 22.4
2009-02-03 10:07:37 51°32.485 2°55.303 316.9 0.9 1 21.6
2009-02-03 10:08:38 51°32.502 2°55.307 317.6 1.1 10 19.7
2009-02-03 10:09:37 51°32.518 2°55.309 317.4 1 357 20.3
2009-02-03 10:10:38 51°32.54 2°55.273 276.7 2.5 289 18.8
2009-02-03 10:11:37 51°32.526 2°55.197 230.7 3.8 238 23.4
2009-02-03 10:12:37 51°32.484 2°55.098 229.3 4.9 234 22.4
2009-02-03 10:13:38 51°32.444 2°55.002 229.4 3.2 235 23.2
2009-02-03 10:14:37 51°32.423 2°54.95 220.6 1.8 236 21.1
2009-02-03 10:15:38 51°32.41 2°54.919 216.4 1.1 245 23
2009-02-03 10:16:37 51°32.405 2°54.899 218.7 0.6 248 23
2009-02-03 10:17:38 51°32.405 2°54.886 221.8 0.4 298 23.1
2009-02-03 10:18:37 51°32.41 2°54.877 231.4 0.5 323 23
2009-02-03 10:19:38 51°32.423 2°54.871 253.6 0.7 352 23.3
2009-02-03 10:20:38 51°32.437 2°54.869 276.3 0.9 359 23.4
2009-02-03 10:21:37 51°32.453 2°54.87 296.1 1 5 22.9
2009-02-03 10:22:38 51°32.467 2°54.87 308.8 1 2 22.8
2009-02-03 10:23:38 51°32.48 2°54.871 314.6 0.8 358 21.1
2009-02-03 10:24:38 51°32.493 2°54.873 318.2 0.8 11 20.5
2009-02-03 10:25:37 51°32.505 2°54.877 323.7 0.8 18 22.3
2009-02-03 10:26:38 51°32.517 2°54.882 323.3 0.7 24 23.1
2009-02-03 10:27:38 51°32.528 2°54.887 324.1 0.6 17 23.6
2009-02-03 10:28:38 51°32.539 2°54.891 322.8 0.6 20 23.6
2009-02-03 10:29:38 51°32.55 2°54.896 322 0.7 13 23.5
2009-02-03 10:30:37 51°32.561 2°54.899 320.7 0.7 10 23.5
2009-02-03 10:31:38 51°32.572 2°54.904 319.7 0.6 7 22.6
2009-02-03 10:32:37 51°32.59 2°54.887 294.2 2.6 303 20.4
2009-02-03 10:33:38 51°32.584 2°54.813 225.3 2.5 233 23.6
2009-02-03 10:34:38 51°32.549 2°54.798 161.3 1.8 161 20.7
2009-02-03 10:35:38 51°32.535 2°54.823 128.7 0.7 110 21.1
2009-02-03 10:36:38 51°32.535 2°54.842 131.3 0.6 86 22.5
2009-02-03 10:37:38 51°32.536 2°54.855 136.7 0.4 84 23.1
2009-02-03 10:38:38 51°32.536 2°54.867 147.5 0.5 132 23.1
2009-02-03 10:39:38 51°32.495 2°54.855 208.3 5.2 219 20.9
2009-02-03 10:40:38 51°32.41 2°54.684 229.1 9.9 231 22.9
2009-02-03 10:41:38 51°32.305 2°54.464 229.4 10.6 234 22.1
2009-02-03 10:42:38 51°32.197 2°54.24 228.9 10.6 233 22.1
2009-02-03 10:43:38 51°32.093 2°54.017 230.8 10.4 236 20.9
2009-02-03 10:44:38 51°31.992 2°53.8 229.6 10 232 22
2009-02-03 10:45:38 51°31.892 2°53.589 230.8 9.7 233 21.5
2009-02-03 10:46:38 51°31.8 2°53.395 230.3 8.9 232 22.2
2009-02-03 10:47:38 51°31.723 2°53.191 241.1 9 243 20.9
2009-02-03 10:48:38 51°31.665 2°52.987 242.7 8 245 21.1
2009-02-03 10:49:38 51°31.605 2°52.822 229.4 6.2 235 22.4
2009-02-03 10:50:38 51°31.536 2°52.752 202.7 4.3 210 21.1
2009-02-03 10:51:38 51°31.483 2°52.689 220.9 3.7 229 20.3
2009-02-03 10:52:37 51°31.446 2°52.588 236.4 5.2 239 21.3
2009-02-03 10:53:38 51°31.391 2°52.534 174.2 2.9 173 18.2
2009-02-03 10:54:38 51°31.349 2°52.563 166.2 2.9 168 21.1
2009-02-03 10:55:38 51°31.307 2°52.561 185 2.2 185 21.3
2009-02-03 10:56:38 51°31.283 2°52.561 181.4 0.3 152 21.5
2009-02-03 10:57:38 51°31.281 2°52.569 171.4 0.3 83 21.3
2009-02-03 10:58:38 51°31.283 2°52.578 156.4 0.3 58 21.2
2009-02-03 10:59:38 51°31.288 2°52.587 139.6 0.5 48 21.2
2009-02-03 11:00:38 51°31.293 2°52.595 133.7 0.2 26 21.2
2009-02-03 11:01:38 51°31.298 2°52.595 144.8 0.2 354 21.1
2009-02-03 11:02:38 51°31.303 2°52.594 161.9 0.3 9 21
2009-02-03 11:03:38 51°31.304 2°52.595 174.1 0.1 115 21
2009-02-03 11:04:38 51°31.302 2°52.597 179.5 0.2 147 21.1
2009-02-03 11:05:38 51°31.3 2°52.6 177.3 0.1 174 20.8
2009-02-03 11:06:38 51°31.298 2°52.602 180.8 0.1 90 20.8
2009-02-03 11:07:38 51°31.297 2°52.604 184.6 -999 52 20.8
2009-02-03 11:08:38 51°31.298 2°52.605 188.3 0.2 56 20.8
2009-02-03 11:09:38 51°31.298 2°52.605 190.2 -999 244 20.6
2009-02-03 11:10:38 51°31.298 2°52.606 194.1 0.1 61 20.6
2009-02-03 11:11:38 51°31.297 2°52.606 199.1 0.1 154 20.7
2009-02-03 11:12:38 51°31.297 2°52.606 197.8 -999 90 20.8
2009-02-03 11:13:38 51°31.297 2°52.606 196.2 0.1 306 20.7
2009-02-03 11:14:38 51°31.297 2°52.607 197.3 0.2 96 20.8
2009-02-03 11:15:38 51°31.298 2°52.607 195.9 0.2 298 20.6
2009-02-03 11:16:38 51°31.297 2°52.606 201.7 -999 322 20.8
2009-02-03 11:17:38 51°31.298 2°52.606 198.4 0.1 13 20.7
2009-02-03 11:18:38 51°31.298 2°52.607 194.3 0.2 135 20.6
2009-02-03 11:19:38 51°31.297 2°52.607 192.6 0.1 199 20.8
2009-02-03 11:20:37 51°31.296 2°52.608 190 0.1 171 20.7
2009-02-03 11:21:38 51°31.295 2°52.608 187.7 0.1 224 20.9
2009-02-03 11:22:38 51°31.294 2°52.609 188.4 0.2 134 20.8
2009-02-03 11:23:38 51°31.293 2°52.609 186.8 0.1 8 20.8
2009-02-03 11:24:38 51°31.294 2°52.609 188.4 0.1 335 20.9
2009-02-03 11:25:37 51°31.295 2°52.608 190 0.1 296 20.6
2009-02-03 11:26:38 51°31.296 2°52.608 192.6 0.1 248 20.7
2009-02-03 11:27:38 51°31.296 2°52.607 193.8 0.1 288 20.6
2009-02-03 11:28:38 51°31.296 2°52.607 190.9 0.1 249 20.7
2009-02-03 11:29:37 51°31.296 2°52.607 189 0.1 307 20.6
2009-02-03 11:30:37 51°31.295 2°52.607 188.8 0.1 251 20.8
2009-02-03 11:31:37 51°31.294 2°52.606 185.9 0.1 87 21
2009-02-03 11:32:38 51°31.294 2°52.606 183.7 0.1 288 20.7
2009-02-03 11:33:38 51°31.294 2°52.607 182.1 -999 92 21
2009-02-03 11:34:37 51°31.293 2°52.608 183.9 0.1 281 20.9
2009-02-03 11:35:38 51°31.294 2°52.608 183.9 0.1 97 20.9
2009-02-03 11:36:37 51°31.294 2°52.608 183.9 -999 235 20.9
2009-02-03 11:37:37 51°31.294 2°52.608 180.4 0.2 283 20.9
2009-02-03 11:38:37 51°31.293 2°52.607 180.4 0.1 265 20.9
2009-02-03 11:39:38 51°31.293 2°52.606 177.1 0.1 273 20.9
2009-02-03 11:40:38 51°31.294 2°52.606 175 0.1 57 20.9
2009-02-03 11:41:37 51°31.294 2°52.605 171.3 0.1 36 20.9
2009-02-03 11:42:38 51°31.295 2°52.604 169.5 -999 39 21.1
2009-02-03 11:43:37 51°31.296 2°52.602 166 0.2 313 20.9
2009-02-03 11:44:38 51°31.296 2°52.602 163.3 0.1 42 21
2009-02-03 11:45:37 51°31.297 2°52.6 159.9 0.1 290 20.9
2009-02-03 11:46:37 51°31.296 2°52.598 156.7 0.1 35 21.1
2009-02-03 11:47:37 51°31.294 2°52.593 165.9 0.5 233 20.9
2009-02-03 11:48:37 51°31.288 2°52.584 192.7 0.5 210 20.9
2009-02-03 11:49:38 51°31.281 2°52.576 206.7 0.5 205 21.4
2009-02-03 11:50:37 51°31.276 2°52.575 201.3 0.2 220 21
2009-02-03 11:51:38 51°31.262 2°52.576 186.7 2.3 183 21.1
2009-02-03 11:52:38 51°31.188 2°52.54 214.3 6.2 216 20.4
2009-02-03 11:53:38 51°31.105 2°52.375 233 9.3 234 21.1
2009-02-03 11:54:37 51°31.006 2°52.164 233.6 10.4 233 17.8
2009-02-03 11:55:37 51°30.901 2°51.929 235 11.2 238 20.1
2009-02-03 11:56:37 51°30.795 2°51.664 238.9 12.5 237 18.9
2009-02-03 11:57:37 51°30.685 2°51.379 239.8 12.6 239 21.4
2009-02-03 11:58:37 51°30.581 2°51.087 241.1 12.5 240 21.1
2009-02-03 11:59:37 51°30.473 2°50.796 240.2 12.6 240 21.6
2009-02-03 12:00:37 51°30.366 2°50.504 240.5 12.7 239 20.2
2009-02-03 12:01:37 51°30.256 2°50.212 239.7 12.6 240 20.1
2009-02-03 12:02:37 51°30.144 2°49.924 237.2 12.9 236 22
2009-02-03 12:03:37 51°30.03 2°49.637 238 12.8 237 23.3
2009-02-03 12:04:37 51°29.919 2°49.347 240.8 12.8 244 19.2
2009-02-03 12:05:37 51°29.83 2°49.038 247.7 12.9 249 21.6
2009-02-03 12:06:37 51°29.747 2°48.724 248.5 12.7 247 23.7
2009-02-03 12:07:38 51°29.656 2°48.409 245.2 12.9 246 24.1
2009-02-03 12:08:38 51°29.57 2°48.097 246.8 12.8 249 23.6
2009-02-03 12:09:37 51°29.483 2°47.791 246.8 12.9 243 21.1
2009-02-03 12:10:37 51°29.395 2°47.48 246.7 12.7 247 25.1
2009-02-03 12:11:37 51°29.306 2°47.168 244.9 13.1 244 24.2
2009-02-03 12:12:37 51°29.215 2°46.858 247.1 12.8 246 22.9
2009-02-03 12:13:37 51°29.13 2°46.541 247.8 13 249 24.9
2009-02-03 12:14:37 51°29.066 2°46.212 256.5 13 255 24.2
2009-02-03 12:15:37 51°29.008 2°45.879 255.3 13 255 24.1
2009-02-03 12:16:37 51°28.948 2°45.547 254.2 12.9 251 24.6
2009-02-03 12:17:37 51°28.888 2°45.216 256.1 12.9 253 27
2009-02-03 12:18:37 51°28.829 2°44.884 254.9 13 252 25.9
2009-02-03 12:19:37 51°28.762 2°44.552 253.8 13 251 28
2009-02-03 12:20:37 51°28.692 2°44.225 252.2 13 250 28.9
2009-02-03 12:21:38 51°28.619 2°43.893 253.4 13.1 254 30.3
2009-02-03 12:22:37 51°28.549 2°43.573 251.9 12.8 251 28.6
2009-02-03 12:23:37 51°28.477 2°43.247 253.4 13 252 29.3
2009-02-03 12:24:37 51°28.41 2°42.92 254.3 12.9 253 30
2009-02-03 12:25:37 51°28.335 2°42.597 248.3 13 248 28.8
2009-02-03 12:26:37 51°28.25 2°42.279 249.2 12.9 247 30.5
2009-02-03 12:27:37 51°28.166 2°41.961 247.2 13.1 247 31
2009-02-03 12:28:37 51°28.077 2°41.647 246.5 13.1 245 30.3
2009-02-03 12:29:37 51°27.986 2°41.334 246.4 12.9 246 29.6
2009-02-03 12:30:37 51°27.894 2°41.021 245.2 13.1 245 27.1
2009-02-03 12:31:37 51°27.799 2°40.712 244.9 12.9 244 31.7
2009-02-03 12:32:37 51°27.707 2°40.399 245 13 244 29.4
2009-02-03 12:33:37 51°27.613 2°40.088 246.4 12.9 245 32.5
2009-02-03 12:34:37 51°27.52 2°39.776 245.4 13 246 32.2
2009-02-03 12:35:37 51°27.43 2°39.462 247.5 13.1 245 32.5
2009-02-03 12:36:37 51°27.339 2°39.147 244.7 13.1 243 34.2
2009-02-03 12:37:37 51°27.235 2°38.843 242.1 13 238 33.6
2009-02-03 12:38:37 51°27.131 2°38.539 241.6 13.1 236 32.3
2009-02-03 12:39:37 51°26.996 2°38.266 229.2 13.1 229 32.8
2009-02-03 12:40:37 51°26.853 2°38.001 229.4 13.1 230 32.5
2009-02-03 12:41:37 51°26.71 2°37.737 228.8 13.2 232 33.9
2009-02-03 12:42:38 51°26.563 2°37.47 227.3 13.3 228 33.5
2009-02-03 12:43:37 51°26.424 2°37.206 231.1 13.2 230 34.2
2009-02-03 12:44:38 51°26.283 2°36.932 228.2 13.1 230 33
2009-02-03 12:45:37 51°26.144 2°36.672 229.3 13.2 232 32.1
2009-02-03 12:46:37 51°26.006 2°36.402 231 13.1 230 32.1
2009-02-03 12:47:37 51°25.865 2°36.136 228.9 13 227 31.7
2009-02-03 12:48:37 51°25.725 2°35.871 229.9 12.9 234 31.5
2009-02-03 12:49:37 51°25.605 2°35.581 240.5 13.1 239 32.6
2009-02-03 12:50:37 51°25.506 2°35.272 244.9 13.2 243 31.9
2009-02-03 12:51:37 51°25.409 2°34.959 244.6 13.1 244 31.5
2009-02-03 12:52:38 51°25.308 2°34.643 244.9 13.2 243 31.2
2009-02-03 12:53:38 51°25.209 2°34.332 243.4 13.2 240 30.4
2009-02-03 12:54:38 51°25.107 2°34.021 243.1 13.2 242 28.2
2009-02-03 12:55:38 51°25.003 2°33.709 243 13.3 240 25
2009-02-03 12:56:37 51°24.906 2°33.399 244.9 13.2 244 21.6
2009-02-03 12:57:38 51°24.801 2°33.083 242.7 13.3 242 20.3
2009-02-03 12:58:37 51°24.704 2°32.774 243.9 13.3 242 16.9
2009-02-03 12:59:38 51°24.604 2°32.454 243.4 13.1 246 20.7
2009-02-03 13:00:37 51°24.505 2°32.147 243.3 13.2 244 25.4
2009-02-03 13:01:38 51°24.405 2°31.832 243 13 243 27.4
2009-02-03 13:02:38 51°24.307 2°31.521 243.5 13.1 243 31
2009-02-03 13:03:38 51°24.206 2°31.211 242 13.2 241 31.6
2009-02-03 13:04:38 51°24.1 2°30.906 242.2 13.1 241 33.5
2009-02-03 13:05:37 51°24.002 2°30.6 243.8 13.2 243 32.6
2009-02-03 13:06:38 51°23.913 2°30.323 243.9 10.5 242 32.7
2009-02-03 13:07:38 51°23.842 2°30.12 242.5 6.8 240 33.2
2009-02-03 13:08:38 51°23.798 2°30.002 238.3 3.9 236 32.9
2009-02-03 13:09:38 51°23.765 2°29.925 251.2 3.2 246 33.3
2009-02-03 13:10:38 51°23.754 2°29.865 279.2 1.9 265 33
2009-02-03 13:11:38 51°23.748 2°29.815 269.7 2.1 257 32.7
2009-02-03 13:12:38 51°23.737 2°29.77 261.4 1.6 244 33
2009-02-03 13:13:38 51°23.728 2°29.738 267.8 1.1 245 32.8
2009-02-03 13:14:38 51°23.722 2°29.713 276.8 0.9 246 33.1
2009-02-03 13:15:38 51°23.717 2°29.691 301.5 1.1 269 33.4
2009-02-03 13:16:38 51°23.737 2°29.656 359.6 1.9 340 33.4
2009-02-03 13:17:38 51°23.759 2°29.684 69.1 2.2 90 33.3
2009-02-03 13:18:38 51°23.743 2°29.735 101 2.1 121 32.8
2009-02-03 13:19:38 51°23.738 2°29.796 75.2 2.6 86 31.2
2009-02-03 13:20:38 51°23.747 2°29.835 50.7 1.1 56 33.7
2009-02-03 13:21:38 51°23.755 2°29.852 45.7 0.6 51 33.2
2009-02-03 13:22:38 51°23.756 2°29.855 45.8 0.2 180 33.3
2009-02-03 13:23:38 51°23.752 2°29.854 52.7 0.3 218 33.2
2009-02-03 13:24:38 51°23.744 2°29.846 74.5 0.8 212 33.3
2009-02-03 13:25:38 51°23.735 2°29.831 90.7 0.9 224 33.7
2009-02-03 13:26:38 51°23.725 2°29.816 103.1 0.9 215 33.7
2009-02-03 13:27:38 51°23.715 2°29.803 114.8 1 219 33.5
2009-02-03 13:28:38 51°23.704 2°29.796 113.9 0.9 174 33
2009-02-03 13:29:38 51°23.691 2°29.796 112.8 0.7 189 33
2009-02-03 13:30:38 51°23.676 2°29.794 122.1 1.1 181 32.6
2009-02-03 13:31:38 51°23.659 2°29.813 91 1.5 124 33.2
2009-02-03 13:32:38 51°23.668 2°29.843 30.2 1.4 19 33
2009-02-03 13:33:38 51°23.69 2°29.83 348.4 1.3 324 33.7
2009-02-03 13:34:38 51°23.708 2°29.807 0.9 1.3 331 33.6
2009-02-03 13:35:38 51°23.724 2°29.802 22.8 1 1 33.8
2009-02-03 13:36:38 51°23.738 2°29.811 36.4 0.6 22 29.2
2009-02-03 13:37:38 51°23.745 2°29.817 38.7 0.4 41 33
2009-02-03 13:38:38 51°23.748 2°29.821 37.7 0.2 24 33.5
2009-02-03 13:39:38 51°23.75 2°29.822 33.8 0.1 287 33.7
2009-02-03 13:40:38 51°23.75 2°29.82 31.5 0.1 275 33.7
2009-02-03 13:41:38 51°23.75 2°29.815 27.6 0.2 275 33.5
2009-02-03 13:42:38 51°23.75 2°29.808 21.3 0.2 259 33.2
2009-02-03 13:43:38 51°23.75 2°29.799 9.7 0.3 267 33
2009-02-03 13:44:38 51°23.746 2°29.786 356.9 0.8 218 32.9
2009-02-03 13:45:38 51°23.736 2°29.776 349.3 0.7 209 33.3
2009-02-03 13:46:38 51°23.733 2°29.765 358.1 0.7 336 33.3
2009-02-03 13:47:38 51°23.748 2°29.767 36.6 0.6 32 33
2009-02-03 13:48:38 51°23.746 2°29.766 65.8 0.8 223 33
2009-02-03 13:49:38 51°23.738 2°29.764 87 1 125 33.4
2009-02-03 13:50:38 51°23.725 2°29.782 103.3 0.9 144 28.2
2009-02-03 13:51:38 51°23.712 2°29.791 109.9 0.9 170 33.5
2009-02-03 13:52:38 51°23.698 2°29.797 113.4 1.1 157 33.3
2009-02-03 13:53:38 51°23.686 2°29.821 83 1.2 109 33.7
2009-02-03 13:54:38 51°23.69 2°29.847 41.3 0.9 41 33.5
2009-02-03 13:55:38 51°23.706 2°29.845 357.4 1.2 334 33.6
2009-02-03 13:56:38 51°23.727 2°29.822 345.5 1.8 324 33.9
2009-02-03 13:57:38 51°23.747 2°29.799 344.6 1.1 317 33.2
2009-02-03 13:58:38 51°23.753 2°29.78 336.3 0.6 273 33.3
2009-02-03 13:59:38 51°23.751 2°29.762 317.9 0.6 252 33.2
2009-02-03 14:00:38 51°23.74 2°29.758 318.6 0.9 177 33.5
2009-02-03 14:01:38 51°23.724 2°29.763 329.8 1.2 171 33.4
2009-02-03 14:02:38 51°23.703 2°29.766 339.6 1.2 182 33.5
2009-02-03 14:03:38 51°23.69 2°29.763 356.1 0.3 209 33.5
2009-02-03 14:04:39 51°23.696 2°29.76 10.2 0.9 352 33.2
2009-02-03 14:05:38 51°23.718 2°29.752 0.9 1.5 349 33.4
2009-02-03 14:06:38 51°23.739 2°29.76 38.4 1.2 42 33.7
2009-02-03 14:07:38 51°23.745 2°29.789 68.4 1 88 33
2009-02-03 14:08:38 51°23.741 2°29.812 79.8 0.8 112 28.8
2009-02-03 14:09:38 51°23.734 2°29.828 92.4 0.8 138 34.2
2009-02-03 14:10:38 51°23.725 2°29.839 103.8 0.6 139 34.2
2009-02-03 14:11:38 51°23.714 2°29.844 117.9 0.8 172 33.8
2009-02-03 14:12:38 51°23.703 2°29.846 127.4 0.7 186 33.9
2009-02-03 14:13:38 51°23.692 2°29.846 130.7 0.6 184 33.8
2009-02-03 14:14:38 51°23.683 2°29.846 135.8 0.6 181 33.7
2009-02-03 14:15:38 51°23.674 2°29.846 136.1 0.6 188 33.8
2009-02-03 14:16:38 51°23.656 2°29.859 132.2 2.7 143 33.9
2009-02-03 14:17:38 51°23.584 2°29.98 127.8 9.2 133 33.8
2009-02-03 14:18:38 51°23.456 2°30.203 133.4 12.2 134 34.3
2009-02-03 14:19:38 51°23.275 2°30.351 159.7 12.6 164 33.4
2009-02-03 14:20:38 51°23.074 2°30.435 163.1 12.4 166 33.2
2009-02-03 14:21:38 51°22.874 2°30.521 161.6 12.5 164 30.2
2009-02-03 14:22:38 51°22.696 2°30.663 140.6 11.9 136 31.4
2009-02-03 14:23:38 51°22.587 2°30.925 112.7 12 116 31.5
2009-02-03 14:24:38 51°22.51 2°31.219 110.6 11.9 118 31.8
2009-02-03 14:25:38 51°22.418 2°31.5 117.8 12 120 31.4
2009-02-03 14:26:38 51°22.31 2°31.772 120.3 12.2 125 32.1
2009-02-03 14:27:38 51°22.199 2°32.041 119.9 12.1 123 31.5
2009-02-03 14:28:38 51°22.088 2°32.308 120.3 12.1 124 32.1
2009-02-03 14:29:38 51°21.975 2°32.577 120.9 12.2 121 30
2009-02-03 14:30:38 51°21.861 2°32.848 122.9 12.4 124 25.9
2009-02-03 14:31:38 51°21.746 2°33.12 121.1 12.5 126 23.3
2009-02-03 14:32:38 51°21.629 2°33.393 121.6 12.4 123 26.7
2009-02-03 14:33:38 51°21.517 2°33.667 120.9 12.2 123 29.8
2009-02-03 14:34:38 51°21.404 2°33.936 122.8 12.2 122 33.2
2009-02-03 14:35:38 51°21.289 2°34.203 121.6 12.3 124 31.2
2009-02-03 14:36:38 51°21.177 2°34.471 121.3 12.2 121 31.5
2009-02-03 14:37:38 51°21.072 2°34.746 119.7 12.1 123 32.5
2009-02-03 14:38:38 51°20.962 2°35.014 122 12.2 125 32.5
2009-02-03 14:39:38 51°20.853 2°35.287 121.4 12.1 120 32.2
2009-02-03 14:40:38 51°20.745 2°35.562 121 12.4 120 27.9
2009-02-03 14:41:38 51°20.635 2°35.836 120.5 12.3 123 23.6
2009-02-03 14:42:38 51°20.524 2°36.112 123.7 12.5 123 20.2
2009-02-03 14:43:38 51°20.403 2°36.378 122.6 12.3 126 21.4
2009-02-03 14:44:38 51°20.284 2°36.645 122.9 12.4 130 23.2
2009-02-03 14:45:38 51°20.165 2°36.911 122.6 12.3 124 21.9
2009-02-03 14:46:38 51°20.049 2°37.181 123.5 12.5 125 22.9
2009-02-03 14:47:38 51°19.932 2°37.448 123.7 12.3 123 22.3
2009-02-03 14:48:38 51°19.816 2°37.719 123.2 12.5 126 23.5
2009-02-03 14:49:38 51°19.699 2°37.988 122 12.4 129 23.1
2009-02-03 14:50:38 51°19.582 2°38.259 122.2 12.3 124 23.6
2009-02-03 14:51:38 51°19.464 2°38.53 121.8 12.3 126 25.7
2009-02-03 14:52:38 51°19.346 2°38.797 122.2 12.3 123 28.9
2009-02-03 14:53:38 51°19.23 2°39.066 123.3 12.3 127 29.7
2009-02-03 14:54:38 51°19.113 2°39.336 124.3 12.5 126 28.1
2009-02-03 14:55:38 51°18.998 2°39.608 119.2 12.3 114 25.8
2009-02-03 14:56:38 51°18.941 2°39.915 97.5 12.1 93 24.6
2009-02-03 14:57:38 51°18.924 2°40.236 94.8 12.2 97 23.4
2009-02-03 14:58:38 51°18.895 2°40.559 96.9 12.2 98 18.4
2009-02-03 14:59:38 51°18.856 2°40.879 100.7 12.3 100 17.4
2009-02-03 15:00:38 51°18.786 2°41.188 114.1 12.5 114 22.1
2009-02-03 15:01:38 51°18.676 2°41.463 126.1 12.3 123 21.9
2009-02-03 15:02:38 51°18.546 2°41.717 129 12.5 129 23.5
2009-02-03 15:03:38 51°18.416 2°41.973 129 12.3 129 24.6
2009-02-03 15:04:38 51°18.288 2°42.231 128.9 12.3 128 25.1
2009-02-03 15:05:38 51°18.162 2°42.488 125.9 12.3 129 25.5
2009-02-03 15:06:38 51°18.041 2°42.752 128 12.4 127 25.1
2009-02-03 15:07:38 51°17.916 2°43.012 129.3 12.2 131 22.7
2009-02-03 15:08:38 51°17.775 2°43.253 133 12.6 132 12.7
2009-02-03 15:09:38 51°17.632 2°43.498 134.5 12.6 130 13
2009-02-03 15:10:38 51°17.489 2°43.738 133.1 12.3 133 14.5
2009-02-03 15:11:38 51°17.344 2°43.976 134.1 12.3 133 17.4
2009-02-03 15:12:38 51°17.201 2°44.212 132.3 12.4 136 17
2009-02-03 15:13:38 51°17.059 2°44.45 132.9 12.5 134 17.4
2009-02-03 15:14:38 51°16.917 2°44.685 133.1 12.4 135 15.9
2009-02-03 15:15:38 51°16.773 2°44.918 133.1 12.6 135 12.2
2009-02-03 15:16:38 51°16.63 2°45.154 133.7 12.4 132 12
2009-02-03 15:17:38 51°16.487 2°45.39 133.4 12.2 136 12.5
2009-02-03 15:18:38 51°16.344 2°45.626 132.4 12.2 135 12.2
2009-02-03 15:19:38 51°16.2 2°45.866 134.5 12.6 133 12.2
2009-02-03 15:20:38 51°16.065 2°46.121 129.4 12.4 129 13.8
2009-02-03 15:21:38 51°15.96 2°46.412 118.1 12.6 119 16.6
2009-02-03 15:22:38 51°15.885 2°46.722 107.5 12.6 106 18.3
2009-02-03 15:23:38 51°15.846 2°47.052 102.6 12.7 103 18.4
2009-02-03 15:24:38 51°15.801 2°47.378 104.8 12.6 105 17.2
2009-02-03 15:25:38 51°15.753 2°47.704 104.1 12.7 103 16
2009-02-03 15:26:38 51°15.698 2°48.028 105.2 12.7 102 14
2009-02-03 15:27:38 51°15.648 2°48.355 103.2 12.6 104 12.8
2009-02-03 15:28:38 51°15.596 2°48.68 103.8 12.7 101 12.1
2009-02-03 15:29:38 51°15.574 2°49.016 93.2 12.8 95 12.7
2009-02-03 15:30:38 51°15.563 2°49.359 93.3 12.9 92 14.3
2009-02-03 15:31:38 51°15.557 2°49.702 94.1 13 92 14.7
2009-02-03 15:32:38 51°15.549 2°50.047 93.9 13 92 14.6
2009-02-03 15:33:38 51°15.543 2°50.392 93.7 13 92 14.6
2009-02-03 15:34:38 51°15.532 2°50.735 93.2 13 92 14.5
2009-02-03 15:35:38 51°15.522 2°51.077 95.6 12.9 97 14.4
2009-02-03 15:36:38 51°15.498 2°51.415 97.8 12.9 97 14.2
2009-02-03 15:37:38 51°15.459 2°51.75 103.9 12.9 101 13.9
2009-02-03 15:38:38 51°15.415 2°52.086 103.5 12.9 101 13.5
2009-02-03 15:39:38 51°15.367 2°52.419 106.2 13 100 13
2009-02-03 15:40:38 51°15.308 2°52.741 113.6 12.5 115 12.5
2009-02-03 15:41:38 51°15.226 2°53.046 116.4 12 112 12.3
2009-02-03 15:42:38 51°15.145 2°53.342 116.9 12.5 112 11.9
2009-02-03 15:43:38 51°15.052 2°53.632 127.1 12 125 11.6
2009-02-03 15:44:38 51°14.937 2°53.898 128.2 12.3 126 11.1
2009-02-03 15:45:38 51°14.817 2°54.162 129.7 12.2 125 11.7
2009-02-03 15:46:38 51°14.699 2°54.43 130.6 12.4 124 12.2
2009-02-03 15:47:38 51°14.572 2°54.69 132.9 12.3 128 11.9
2009-02-03 15:48:38 51°14.439 2°54.94 136.7 12.5 130 12.5
2009-02-03 15:49:38 51°14.31 2°55.176 132.5 11.2 133 11.9
2009-02-03 15:50:39 51°14.186 2°55.353 142.3 9.3 144 12
2009-02-03 15:51:39 51°14.054 2°55.466 155.1 9 156 11.8
2009-02-03 15:52:38 51°13.92 2°55.561 155.5 8.9 157 -999
2009-02-03 15:53:37 51°13.797 2°55.657 142.8 7.9 148 11.9
2009-02-03 15:55:32 51°13.671 2°55.911 107.1 3.8 110 -999
2009-02-03 15:56:32 51°13.66 2°55.957 114.4 0.3 114 -999
2009-02-03 15:57:32 51°13.661 2°55.959 117.9 0.3 73 -999
2009-02-03 15:58:32 51°13.662 2°55.96 124.6 0.1 312 -999
2009-02-03 15:59:32 51°13.663 2°55.959 122.7 0.1 319 -999